createdAt,value
2018-12-16T00:02:28.256Z,0.00
2018-12-16T00:04:56.577Z,0.10
2018-12-16T00:07:25.129Z,0.10
2018-12-16T00:09:53.486Z,0.10
2018-12-16T00:12:21.832Z,0.10
2018-12-16T00:14:50.227Z,0.10
2018-12-16T00:17:18.589Z,0.10
2018-12-16T00:19:47.560Z,0.10
2018-12-16T00:22:15.967Z,0.10
2018-12-16T00:24:44.351Z,0.10
2018-12-16T00:27:13.001Z,0.10
2018-12-16T00:29:41.600Z,0.10
2018-12-16T00:32:09.925Z,0.10
2018-12-16T00:34:38.350Z,0.10
2018-12-16T00:37:07.039Z,0.20
2018-12-16T00:39:35.353Z,0.20
2018-12-16T00:42:03.680Z,0.20
2018-12-16T00:44:32.481Z,0.20
2018-12-16T00:47:00.781Z,0.20
2018-12-16T00:49:29.078Z,0.20
2018-12-16T00:51:57.528Z,0.30
2018-12-16T00:54:25.811Z,0.30
2018-12-16T00:56:54.110Z,0.30
2018-12-16T00:59:22.746Z,0.40
2018-12-16T01:01:51.119Z,0.40
2018-12-16T01:04:19.400Z,0.40
2018-12-16T01:06:48.084Z,0.40
2018-12-16T01:09:16.367Z,0.40
2018-12-16T01:11:44.686Z,0.50
2018-12-16T01:14:13.468Z,0.50
2018-12-16T01:16:41.765Z,0.50
2018-12-16T01:19:10.114Z,0.50
2018-12-16T01:21:38.601Z,0.50
2018-12-16T01:24:06.939Z,0.50
2018-12-16T01:26:35.315Z,0.50
2018-12-16T01:29:04.359Z,0.50
2018-12-16T01:31:32.683Z,0.50
2018-12-16T01:34:01.075Z,0.50
2018-12-16T01:36:29.640Z,0.60
2018-12-16T01:38:57.967Z,0.60
2018-12-16T01:41:26.270Z,0.60
2018-12-16T01:43:54.848Z,0.60
2018-12-16T01:46:23.124Z,0.70
2018-12-16T01:48:51.503Z,0.80
2018-12-16T01:51:20.058Z,0.80
2018-12-16T01:53:48.354Z,0.90
2018-12-16T01:56:16.636Z,0.90
2018-12-16T01:58:45.197Z,0.90
2018-12-16T02:01:13.489Z,1.00
2018-12-16T02:03:41.778Z,1.00
2018-12-16T02:06:10.308Z,1.10
2018-12-16T02:08:38.853Z,1.10
2018-12-16T02:11:07.180Z,1.10
2018-12-16T02:13:35.821Z,1.10
2018-12-16T02:16:04.171Z,1.10
2018-12-16T02:18:32.496Z,1.10
2018-12-16T02:21:01.356Z,1.10
2018-12-16T02:23:29.686Z,1.10
2018-12-16T02:25:57.980Z,1.10
2018-12-16T02:28:26.521Z,1.10
2018-12-16T02:30:54.836Z,1.20
2018-12-16T02:33:23.176Z,1.20
2018-12-16T02:35:51.907Z,1.20
2018-12-16T02:38:20.215Z,1.20
2018-12-16T02:40:48.512Z,1.20
2018-12-16T02:43:17.030Z,1.20
2018-12-16T02:45:45.354Z,1.20
2018-12-16T02:48:13.684Z,1.20
2018-12-16T02:50:42.187Z,1.20
2018-12-16T02:53:10.516Z,1.20
2018-12-16T02:55:38.820Z,1.20
2018-12-16T02:58:07.331Z,1.20
2018-12-16T03:00:35.685Z,1.20
2018-12-16T03:03:04.052Z,1.20
2018-12-16T03:05:32.770Z,1.30
2018-12-16T03:08:01.070Z,1.30
2018-12-16T03:10:29.387Z,1.20
2018-12-16T03:12:58.064Z,1.20
2018-12-16T03:15:26.521Z,1.20
2018-12-16T03:17:54.970Z,1.20
2018-12-16T03:20:23.390Z,1.30
2018-12-16T03:22:51.698Z,1.20
2018-12-16T03:25:20.261Z,1.30
2018-12-16T03:27:48.646Z,1.30
2018-12-16T03:30:17.054Z,1.30
2018-12-16T03:32:45.541Z,1.30
2018-12-16T03:35:13.990Z,1.30
2018-12-16T03:37:42.332Z,1.30
2018-12-16T03:40:10.734Z,1.30
2018-12-16T03:42:39.663Z,1.30
2018-12-16T03:45:08.528Z,1.30
2018-12-16T03:47:37.017Z,1.30
2018-12-16T03:50:05.412Z,1.30
2018-12-16T03:52:34.031Z,1.30
2018-12-16T03:55:02.333Z,1.30
2018-12-16T03:57:30.654Z,1.40
2018-12-16T03:59:59.196Z,1.40
2018-12-16T04:02:27.581Z,1.40
2018-12-16T04:04:55.892Z,1.40
2018-12-16T04:07:24.354Z,1.40
2018-12-16T04:09:52.643Z,1.40
2018-12-16T04:12:21.417Z,1.40
2018-12-16T04:14:50.274Z,1.40
2018-12-16T04:17:18.747Z,1.40
2018-12-16T04:19:47.048Z,1.40
2018-12-16T04:22:15.513Z,1.40
2018-12-16T04:24:43.916Z,1.40
2018-12-16T04:27:12.236Z,1.50
2018-12-16T04:29:40.850Z,1.50
2018-12-16T04:32:09.170Z,1.40
2018-12-16T04:34:37.473Z,1.40
2018-12-16T04:37:06.264Z,1.40
2018-12-16T04:39:34.574Z,1.40
2018-12-16T04:42:03.389Z,1.40
2018-12-16T04:44:32.348Z,1.40
2018-12-16T04:47:00.648Z,1.40
2018-12-16T04:49:28.999Z,1.40
2018-12-16T04:51:57.777Z,1.40
2018-12-16T04:54:26.241Z,1.40
2018-12-16T04:56:54.568Z,1.40
2018-12-16T04:59:23.005Z,1.30
2018-12-16T05:01:51.343Z,1.30
2018-12-16T05:04:19.703Z,1.30
2018-12-16T05:06:48.146Z,1.30
2018-12-16T05:09:16.445Z,1.20
2018-12-16T05:11:44.896Z,1.20
2018-12-16T05:14:13.363Z,1.20
2018-12-16T05:16:41.701Z,1.20
2018-12-16T05:19:10.394Z,1.20
2018-12-16T05:21:39.029Z,1.10
2018-12-16T05:24:07.364Z,1.10
2018-12-16T05:26:35.819Z,1.10
2018-12-16T05:29:04.506Z,1.10
2018-12-16T05:31:32.995Z,1.10
2018-12-16T05:34:01.340Z,1.10
2018-12-16T05:36:30.096Z,1.10
2018-12-16T05:38:58.402Z,1.10
2018-12-16T05:41:26.721Z,1.00
2018-12-16T05:43:55.225Z,1.10
2018-12-16T05:46:23.596Z,1.10
2018-12-16T05:48:51.934Z,1.10
2018-12-16T05:51:20.828Z,1.00
2018-12-16T05:53:49.420Z,1.00
2018-12-16T05:56:17.803Z,1.00
2018-12-16T05:58:46.309Z,1.00
2018-12-16T06:01:14.672Z,1.00
2018-12-16T06:03:43.042Z,1.00
2018-12-16T06:06:11.614Z,1.00
2018-12-16T06:08:39.959Z,1.00
2018-12-16T06:11:08.315Z,1.00
2018-12-16T06:13:37.140Z,0.90
2018-12-16T06:16:05.521Z,0.90
2018-12-16T06:18:33.824Z,0.90
2018-12-16T06:21:02.219Z,0.90
2018-12-16T06:23:30.555Z,0.90
2018-12-16T06:25:59.031Z,0.90
2018-12-16T06:28:27.571Z,0.90
2018-12-16T06:30:55.906Z,0.90
2018-12-16T06:33:24.201Z,0.90
2018-12-16T06:35:52.846Z,0.90
2018-12-16T06:38:21.376Z,0.90
2018-12-16T06:40:49.648Z,0.90
2018-12-16T06:43:18.139Z,0.90
2018-12-16T06:45:46.494Z,0.90
2018-12-16T06:48:14.802Z,0.80
2018-12-16T06:50:43.724Z,0.70
2018-12-16T06:53:12.040Z,0.70
2018-12-16T06:55:43.217Z,0.70
2018-12-16T06:58:08.786Z,0.70
2018-12-16T07:00:37.491Z,0.70
2018-12-16T07:03:06.059Z,0.70
2018-12-16T07:05:34.913Z,0.80
2018-12-16T07:08:03.260Z,0.80
2018-12-16T07:10:31.626Z,0.70
2018-12-16T07:13:00.214Z,0.70
2018-12-16T07:15:28.523Z,0.80
2018-12-16T07:17:56.836Z,0.80
2018-12-16T07:20:25.313Z,0.80
2018-12-16T07:22:53.735Z,0.90
2018-12-16T07:25:22.070Z,0.90
2018-12-16T07:27:50.736Z,0.90
2018-12-16T07:30:19.043Z,0.90
2018-12-16T07:32:47.633Z,0.90
2018-12-16T07:35:16.145Z,0.90
2018-12-16T07:37:44.591Z,1.00
2018-12-16T07:40:12.973Z,1.00
2018-12-16T07:42:41.828Z,1.00
2018-12-16T07:45:10.157Z,1.00
2018-12-16T07:47:38.493Z,1.00
2018-12-16T07:50:08.351Z,1.00
2018-12-16T07:52:36.644Z,1.00
2018-12-16T07:55:05.652Z,1.00
2018-12-16T07:57:34.375Z,1.00
2018-12-16T08:00:02.761Z,1.00
2018-12-16T08:02:31.079Z,1.10
2018-12-16T08:04:59.972Z,1.10
2018-12-16T08:07:28.353Z,1.00
2018-12-16T08:09:56.703Z,1.10
2018-12-16T08:12:25.258Z,1.10
2018-12-16T08:14:53.605Z,1.10
2018-12-16T08:17:21.970Z,1.10
2018-12-16T08:19:50.708Z,1.10
2018-12-16T08:22:19.047Z,1.10
2018-12-16T08:24:47.358Z,1.20
2018-12-16T08:27:16.135Z,1.20
2018-12-16T08:29:44.507Z,1.30
2018-12-16T08:32:12.769Z,1.30
2018-12-16T08:34:41.385Z,1.30
2018-12-16T08:37:09.768Z,1.30
2018-12-16T08:39:38.055Z,1.30
2018-12-16T08:42:06.714Z,1.30
2018-12-16T08:44:35.054Z,1.30
2018-12-16T08:47:03.437Z,1.30
2018-12-16T08:49:31.921Z,1.30
2018-12-16T08:52:00.309Z,1.40
2018-12-16T08:54:30.227Z,1.40
2018-12-16T08:56:57.290Z,1.40
2018-12-16T08:59:25.813Z,1.40
2018-12-16T09:01:54.156Z,1.40
2018-12-16T09:04:22.564Z,1.40
2018-12-16T09:06:50.881Z,1.40
2018-12-16T09:09:19.213Z,1.40
2018-12-16T09:11:47.583Z,1.40
2018-12-16T09:14:15.902Z,1.40
2018-12-16T09:16:44.230Z,1.40
2018-12-16T09:19:13.137Z,1.40
2018-12-16T09:21:41.503Z,1.40
2018-12-16T09:24:09.841Z,1.40
2018-12-16T09:26:38.432Z,1.40
2018-12-16T09:29:06.773Z,1.50
2018-12-16T09:31:35.609Z,1.50
2018-12-16T09:34:04.049Z,1.50
2018-12-16T09:36:32.407Z,1.50
2018-12-16T09:39:00.746Z,1.50
2018-12-16T09:41:29.228Z,1.50
2018-12-16T09:43:57.622Z,1.50
2018-12-16T09:46:25.937Z,1.60
2018-12-16T09:48:54.349Z,1.60
2018-12-16T09:51:23.001Z,1.60
2018-12-16T09:53:51.331Z,1.60
2018-12-16T09:56:19.985Z,1.60
2018-12-16T09:58:48.373Z,1.60
2018-12-16T10:01:16.740Z,1.60
2018-12-16T10:03:45.471Z,1.60
2018-12-16T10:06:13.807Z,1.60
2018-12-16T10:08:42.082Z,1.60
2018-12-16T10:11:11.833Z,1.60
2018-12-16T10:13:40.232Z,1.60
2018-12-16T10:16:08.596Z,1.60
2018-12-16T10:18:37.023Z,1.60
2018-12-16T10:21:05.479Z,1.60
2018-12-16T10:23:33.810Z,1.60
2018-12-16T10:26:02.243Z,1.60
2018-12-16T10:28:30.564Z,1.60
2018-12-16T10:30:59.134Z,1.60
2018-12-16T10:33:27.619Z,1.60
2018-12-16T10:35:55.952Z,1.60
2018-12-16T10:38:24.262Z,1.60
2018-12-16T10:40:52.737Z,1.60
2018-12-16T10:43:21.162Z,1.60
2018-12-16T10:45:49.483Z,1.60
2018-12-16T10:48:18.247Z,1.60
2018-12-16T10:50:46.489Z,1.60
2018-12-16T10:53:16.043Z,1.60
2018-12-16T10:55:44.551Z,1.60
2018-12-16T10:58:12.862Z,1.60
2018-12-16T11:00:46.917Z,1.60
2018-12-16T11:03:15.274Z,1.60
2018-12-16T11:05:43.644Z,1.60
2018-12-16T11:08:12.502Z,1.50
2018-12-16T11:10:40.811Z,1.50
2018-12-16T11:13:09.116Z,1.60
2018-12-16T11:15:37.604Z,1.50
2018-12-16T11:18:05.935Z,1.50
2018-12-16T11:20:34.257Z,1.50
2018-12-16T11:23:02.714Z,1.50
2018-12-16T11:25:32.006Z,1.50
2018-12-16T11:28:00.386Z,1.50
2018-12-16T11:30:28.980Z,1.50
2018-12-16T11:32:57.335Z,1.50
2018-12-16T11:35:25.850Z,1.50
2018-12-16T11:37:54.876Z,1.50
2018-12-16T11:40:23.202Z,1.50
2018-12-16T11:42:51.585Z,1.50
2018-12-16T11:45:20.116Z,1.50
2018-12-16T11:47:48.470Z,1.50
2018-12-16T11:50:16.765Z,1.50
2018-12-16T11:52:45.442Z,1.50
2018-12-16T11:55:13.779Z,1.50
2018-12-16T11:57:42.130Z,1.50
2018-12-16T12:00:10.748Z,1.50
2018-12-16T12:02:39.050Z,1.50
2018-12-16T12:05:07.532Z,1.50
2018-12-16T12:07:36.186Z,1.50
2018-12-16T12:10:05.705Z,1.50
2018-12-16T12:12:34.031Z,1.50
2018-12-16T12:15:03.001Z,1.50
2018-12-16T12:17:31.367Z,1.50
2018-12-16T12:20:00.032Z,1.50
2018-12-16T12:22:28.480Z,1.50
2018-12-16T12:24:57.007Z,1.50
2018-12-16T12:27:25.362Z,1.40
2018-12-16T12:29:53.916Z,1.50
2018-12-16T12:32:22.241Z,1.40
2018-12-16T12:34:51.169Z,1.50
2018-12-16T12:37:19.627Z,1.50
2018-12-16T12:39:47.934Z,1.50
2018-12-16T12:42:16.303Z,1.50
2018-12-16T12:44:44.683Z,1.50
2018-12-16T12:47:13.022Z,1.50
2018-12-16T12:49:44.930Z,1.50
2018-12-16T12:52:10.202Z,1.40
2018-12-16T12:54:38.544Z,1.50
2018-12-16T12:57:07.265Z,1.50
2018-12-16T12:59:35.694Z,1.40
2018-12-16T13:02:04.033Z,1.50
2018-12-16T13:04:32.426Z,1.50
2018-12-16T13:07:01.078Z,1.50
2018-12-16T13:09:29.362Z,1.50
2018-12-16T13:11:58.143Z,1.50
2018-12-16T13:14:26.825Z,1.50
2018-12-16T13:16:55.118Z,1.50
2018-12-16T13:19:23.562Z,1.50
2018-12-16T13:21:52.108Z,1.40
2018-12-16T13:24:20.634Z,1.50
2018-12-16T13:26:48.950Z,1.40
2018-12-16T13:29:17.548Z,1.40
2018-12-16T13:31:45.874Z,1.40
2018-12-16T13:34:14.200Z,1.40
2018-12-16T13:36:42.706Z,1.40
2018-12-16T13:39:11.202Z,1.40
2018-12-16T13:41:39.524Z,1.40
2018-12-16T13:44:08.586Z,1.40
2018-12-16T13:46:36.940Z,1.40
2018-12-16T13:49:05.251Z,1.40
2018-12-16T13:51:33.879Z,1.40
2018-12-16T13:54:02.230Z,1.40
2018-12-16T13:56:30.782Z,1.40
2018-12-16T13:58:59.186Z,1.30
2018-12-16T14:01:27.566Z,1.40
2018-12-16T14:03:55.853Z,1.40
2018-12-16T14:06:24.440Z,1.40
2018-12-16T14:08:52.772Z,1.40
2018-12-16T14:11:21.101Z,1.40
2018-12-16T14:13:49.639Z,1.40
2018-12-16T14:16:18.064Z,1.40
2018-12-16T14:18:46.489Z,1.40
2018-12-16T14:21:15.077Z,1.40
2018-12-16T14:23:43.377Z,1.40
2018-12-16T14:26:11.680Z,1.40
2018-12-16T14:28:40.457Z,1.40
2018-12-16T14:31:08.989Z,1.30
2018-12-16T14:33:37.358Z,1.30
2018-12-16T14:36:06.052Z,1.40
2018-12-16T14:38:34.414Z,1.40
2018-12-16T14:41:02.703Z,1.40
2018-12-16T14:43:31.342Z,1.40
2018-12-16T14:45:59.626Z,1.40
2018-12-16T14:48:27.962Z,1.40
2018-12-16T14:50:56.371Z,1.40
2018-12-16T14:53:24.898Z,1.40
2018-12-16T14:55:55.287Z,1.40
2018-12-16T14:58:22.223Z,1.40
2018-12-16T15:00:50.575Z,1.40
2018-12-16T15:03:18.946Z,1.30
2018-12-16T15:05:47.504Z,1.40
2018-12-16T15:08:15.880Z,1.30
2018-12-16T15:10:44.259Z,1.30
2018-12-16T15:13:12.790Z,1.30
2018-12-16T15:15:41.104Z,1.30
2018-12-16T15:18:09.525Z,1.30
2018-12-16T15:20:38.237Z,1.30
2018-12-16T15:23:06.611Z,1.30
2018-12-16T15:25:34.984Z,1.30
2018-12-16T15:28:03.824Z,1.30
2018-12-16T15:30:32.123Z,1.30
2018-12-16T15:33:00.512Z,1.20
2018-12-16T15:35:29.114Z,1.20
2018-12-16T15:37:57.428Z,1.20
2018-12-16T15:40:25.882Z,1.20
2018-12-16T15:42:54.569Z,1.30
2018-12-16T15:45:22.858Z,1.20
2018-12-16T15:47:51.778Z,1.30
2018-12-16T15:50:20.196Z,1.20
2018-12-16T15:52:48.552Z,1.20
2018-12-16T15:55:17.110Z,1.20
2018-12-16T15:57:45.754Z,1.30
2018-12-16T16:00:14.089Z,1.20
2018-12-16T16:02:42.421Z,1.20
2018-12-16T16:05:11.023Z,1.30
2018-12-16T16:07:39.451Z,1.20
2018-12-16T16:10:08.598Z,1.30
2018-12-16T16:12:37.133Z,1.20
2018-12-16T16:15:05.622Z,1.20
2018-12-16T16:17:33.961Z,1.20
2018-12-16T16:20:02.464Z,1.20
2018-12-16T16:22:30.894Z,1.20
2018-12-16T16:24:59.238Z,1.30
2018-12-16T16:27:27.841Z,1.20
2018-12-16T16:29:56.176Z,1.20
2018-12-16T16:32:24.495Z,1.20
2018-12-16T16:34:53.088Z,1.20
2018-12-16T16:37:21.464Z,1.20
2018-12-16T16:39:49.789Z,1.20
2018-12-16T16:42:18.381Z,1.20
2018-12-16T16:44:47.206Z,1.20
2018-12-16T16:47:15.591Z,1.20
2018-12-16T16:49:44.443Z,1.20
2018-12-16T16:52:12.766Z,1.20
2018-12-16T16:54:41.339Z,1.20
2018-12-16T16:57:09.887Z,1.20
2018-12-16T16:59:38.242Z,1.20
2018-12-16T17:02:06.682Z,1.20
2018-12-16T17:04:35.322Z,1.20
2018-12-16T17:07:03.707Z,1.20
2018-12-16T17:09:32.023Z,1.20
2018-12-16T17:12:00.921Z,1.20
2018-12-16T17:14:29.215Z,1.20
2018-12-16T17:16:57.648Z,1.20
2018-12-16T17:19:26.151Z,1.20
2018-12-16T17:21:54.528Z,1.10
2018-12-16T17:24:22.821Z,1.10
2018-12-16T17:26:51.289Z,1.10
2018-12-16T17:29:19.799Z,1.20
2018-12-16T17:31:48.084Z,1.10
2018-12-16T17:34:16.793Z,1.20
2018-12-16T17:36:45.155Z,1.10
2018-12-16T17:39:13.465Z,1.10
2018-12-16T17:41:42.048Z,1.10
2018-12-16T17:44:10.388Z,1.10
2018-12-16T17:46:38.806Z,1.10
2018-12-16T17:49:07.358Z,1.10
2018-12-16T17:51:35.698Z,1.10
2018-12-16T17:54:04.080Z,1.10
2018-12-16T17:56:37.017Z,1.10
2018-12-16T17:59:01.635Z,1.10
2018-12-16T18:01:30.011Z,1.10
2018-12-16T18:03:58.792Z,1.10
2018-12-16T18:06:27.219Z,1.10
2018-12-16T18:08:55.627Z,1.10
2018-12-16T18:11:24.279Z,1.10
2018-12-16T18:13:52.766Z,1.10
2018-12-16T18:16:21.177Z,1.10
2018-12-16T18:18:49.668Z,1.10
2018-12-16T18:21:18.144Z,1.10
2018-12-16T18:23:46.924Z,1.10
2018-12-16T18:26:15.611Z,1.10
2018-12-16T18:28:43.995Z,1.10
2018-12-16T18:31:12.324Z,1.00
2018-12-16T18:33:41.049Z,1.00
2018-12-16T18:36:09.443Z,1.00
2018-12-16T18:38:37.773Z,1.00
2018-12-16T18:41:06.224Z,1.00
2018-12-16T18:43:34.535Z,0.90
2018-12-16T18:46:03.041Z,0.90
2018-12-16T18:48:31.930Z,0.90
2018-12-16T18:51:00.247Z,0.90
2018-12-16T18:53:28.701Z,0.90
2018-12-16T18:55:57.369Z,0.90
2018-12-16T18:58:25.701Z,0.90
2018-12-16T19:00:54.025Z,0.90
2018-12-16T19:03:22.814Z,0.90
2018-12-16T19:05:51.161Z,0.90
2018-12-16T19:08:19.565Z,0.90
2018-12-16T19:10:48.424Z,0.80
2018-12-16T19:13:16.765Z,0.90
2018-12-16T19:15:45.105Z,0.90
2018-12-16T19:18:13.690Z,0.90
2018-12-16T19:20:42.167Z,0.80
2018-12-16T19:23:10.467Z,0.80
2018-12-16T19:25:39.435Z,0.80
2018-12-16T19:28:07.764Z,0.80
2018-12-16T19:30:36.323Z,0.80
2018-12-16T19:33:04.874Z,0.90
2018-12-16T19:35:33.162Z,0.90
2018-12-16T19:38:03.290Z,0.80
2018-12-16T19:40:30.036Z,0.90
2018-12-16T19:42:58.345Z,0.80
2018-12-16T19:45:26.761Z,0.90
2018-12-16T19:47:55.343Z,0.90
2018-12-16T19:50:23.853Z,0.90
2018-12-16T19:52:52.227Z,0.80
2018-12-16T19:55:20.780Z,0.80
2018-12-16T19:57:49.127Z,0.80
2018-12-16T20:00:17.502Z,0.90
2018-12-16T20:02:46.207Z,0.90
2018-12-16T20:05:19.835Z,0.90
2018-12-16T20:07:48.851Z,0.80
2018-12-16T20:10:17.450Z,0.90
2018-12-16T20:12:45.820Z,0.90
2018-12-16T20:15:14.386Z,0.90
2018-12-16T20:17:42.709Z,0.80
2018-12-16T20:20:11.059Z,0.90
2018-12-16T20:22:39.820Z,0.90
2018-12-16T20:25:08.190Z,0.80
2018-12-16T20:27:36.510Z,0.80
2018-12-16T20:30:06.094Z,0.80
2018-12-16T20:32:34.460Z,0.80
2018-12-16T20:35:02.853Z,0.80
2018-12-16T20:37:31.239Z,0.80
2018-12-16T20:39:59.575Z,0.80
2018-12-16T20:42:27.852Z,0.80
2018-12-16T20:44:56.262Z,0.80
2018-12-16T20:47:24.621Z,0.80
2018-12-16T20:49:52.935Z,0.80
2018-12-16T20:52:21.407Z,0.80
2018-12-16T20:54:49.721Z,0.80
2018-12-16T20:57:18.913Z,0.80
2018-12-16T20:59:47.181Z,0.80
2018-12-16T21:02:15.572Z,0.80
2018-12-16T21:04:44.085Z,0.80
2018-12-16T21:07:12.691Z,0.80
2018-12-16T21:09:41.016Z,0.80
2018-12-16T21:12:14.703Z,0.70
2018-12-16T21:14:48.342Z,0.70
2018-12-16T21:17:22.044Z,0.70
2018-12-16T21:19:50.391Z,0.70
2018-12-16T21:22:18.771Z,0.70
2018-12-16T21:24:47.278Z,0.70
2018-12-16T21:27:15.759Z,0.70
2018-12-16T21:29:44.105Z,0.70
2018-12-16T21:32:12.685Z,0.70
2018-12-16T21:34:41.046Z,0.70
2018-12-16T21:37:09.348Z,0.70
2018-12-16T21:39:37.753Z,0.70
2018-12-16T21:42:06.106Z,0.70
2018-12-16T21:44:34.435Z,0.70
2018-12-16T21:47:02.859Z,0.70
2018-12-16T21:49:31.240Z,0.70
2018-12-16T21:51:59.539Z,0.70
2018-12-16T21:54:28.082Z,0.70
2018-12-16T21:56:56.437Z,0.70
2018-12-16T21:59:24.763Z,0.70
2018-12-16T22:01:53.518Z,0.80
2018-12-16T22:04:21.857Z,0.80
2018-12-16T22:06:50.204Z,0.80
2018-12-16T22:09:19.109Z,0.70
2018-12-16T22:11:47.427Z,0.70
2018-12-16T22:14:15.712Z,0.80
2018-12-16T22:16:44.487Z,0.70
2018-12-16T22:19:12.780Z,0.70
2018-12-16T22:21:41.083Z,0.70
2018-12-16T22:24:09.621Z,0.70
2018-12-16T22:26:37.951Z,0.70
2018-12-16T22:29:06.243Z,0.70
2018-12-16T22:31:35.141Z,0.70
2018-12-16T22:34:03.673Z,0.80
2018-12-16T22:36:32.016Z,0.70
2018-12-16T22:39:00.719Z,0.70
2018-12-16T22:41:29.058Z,0.70
2018-12-16T22:43:57.628Z,0.70
2018-12-16T22:46:26.074Z,0.70
2018-12-16T22:48:54.685Z,0.70
2018-12-16T22:51:23.072Z,0.70
2018-12-16T22:53:51.748Z,0.70
2018-12-16T22:56:20.099Z,0.80
2018-12-16T22:58:54.152Z,0.70
2018-12-16T23:01:17.395Z,0.70
2018-12-16T23:03:45.718Z,0.70
2018-12-16T23:06:14.053Z,0.70
2018-12-16T23:08:42.653Z,0.70
2018-12-16T23:11:10.975Z,0.70
2018-12-16T23:13:39.330Z,0.70
2018-12-16T23:16:07.925Z,0.70
2018-12-16T23:18:36.284Z,0.70
2018-12-16T23:21:04.632Z,0.70
2018-12-16T23:23:33.205Z,0.70
2018-12-16T23:26:01.599Z,0.70
2018-12-16T23:28:29.974Z,0.70
2018-12-16T23:30:58.642Z,0.70
2018-12-16T23:33:27.023Z,0.70
2018-12-16T23:35:55.400Z,0.70
2018-12-16T23:38:23.935Z,0.70
2018-12-16T23:40:52.302Z,0.70
2018-12-16T23:43:20.629Z,0.60
2018-12-16T23:45:49.059Z,0.60
2018-12-16T23:48:17.370Z,0.60
2018-12-16T23:50:45.698Z,0.60
2018-12-16T23:53:14.521Z,0.60
2018-12-16T23:55:42.816Z,0.60
2018-12-16T23:58:11.363Z,0.60
